메인 페이지
METAR-TAF:

METAR-TAF

공항 :

상파울루 구아룰류스 국제공항, 상파울루, 브라질

위도: 23-26S, 경도: 046-28W, 고도: 750m

현재 날씨관측

예보는 29분 전, 11:00시(UTC)에 발표되었습니다.
4kt
온도 20°C
습도 83%
기압 1009 hPa
시정 10km 이상
고도 1100ft 상공 구름 보통
고도 10000ft 상공 구름 많음

METAR: SBGR 301100Z 08004KT 9999 SCT011 BKN100 20/17 Q1009

시각: 09:29 (11:29 UTC)

예보

예보는 6 시간 59분 전, 04:30시(UTC)에 발표되었습니다.
예보 대상 시간: 30일 06시부터 01일 12시까지 (UTC)
동북동5kt
시정: 8000m
고도 1000ft 상공 구름 많음
전환 중
30일 06시부터 30일 08시까지 (UTC)
고도 700ft 상공 구름 많음
전환 중
30일 10시부터 30일 12시까지 (UTC)
북북동7kt
전환 중
30일 12시부터 30일 14시까지 (UTC)
북북서8kt
시정 10km 이상
고도 1500ft 상공 구름 보통
전환 중
30일 14시부터 30일 16시까지 (UTC)
고도 2500ft 상공 구름 보통
확률 30%
30일 18시부터 30일 20시까지 (UTC)
남남동5kt
시정: 8000m
고도 2000ft 상공 구름 많음
고도 4000ft 상공 구름 조금, 적란운.
뇌우, 비
전환 중
30일 20시부터 30일 22시까지 (UTC)
동북동5kt
고도 1300ft 상공 구름 많음
전환 중
01일 00시부터 01일 02시까지 (UTC)
북북동5kt
고도 1000ft 상공 구름 많음
확률 30%
01일 06시부터 01일 12시까지 (UTC)
시정: 5000m
고도 800ft 상공 구름 많음
박무

TAF: SBGR 300430Z 3006/0112 07005KT 8000 BKN010 TN17/3009Z TX26/3016Z BECMG 3006/3008 BKN007 BECMG 3010/3012 03007KT BECMG 3012/3014 34008KT 9999 SCT015 BECMG 3014/3016 SCT025 PROB30 3018/3020 15005KT 8000 TSRA BKN020 FEW040CB BECMG 3020/3022 07005KT BKN013 BECMG 0100/0102 02005KT BKN010 PROB30 0106/0112 5000 BR BKN008 RMK PGL

4,000개 이상의 공항 관측 자료 및 예보 (METAR 및 TAF 보고).

지도상에서 검색 가능한 기상관측소가 노란 점과 빨간 점으로 표시되어 있습니다.

기상관측소 명을 보려면 표시 위로 마우스를 이동하세요.

날씨 관측과 예보를 보려면 클릭하세요.

지도 변경 : 확대하려면 엑스 표시가 있는 녹색 버튼, 축소하려면 빼기 표시가 있는 녹색 버튼, 다음 페이지의 지도를 보려면 녹색 화살표를 클릭하세요.


METAR-TAF: